| time (UTC) | temp C | wind direction | speed KPH | gust KPH | rain 1hr cm | rain 24hr cm | rain mn cm | humidity % | barometer mb |
| 20260906031919 | 21 | 142 | 0.0 | 1.6 | 0.00 | 0.10 | 0.10 | 91 | 1011.8 |
| 20260906031414 | 21 | 203 | 0.0 | 1.6 | 0.00 | 0.10 | 0.10 | 91 | 1012.0 |
| 20260906030909 | 21 | 171 | 0.0 | 0.0 | 0.00 | 0.10 | 0.10 | 91 | 1011.7 |
| 20260906030404 | 21 | 182 | 0.0 | 0.0 | 0.00 | 0.10 | 0.10 | 91 | 1011.9 |
| 20260906025858 | 21 | 184 | 0.0 | 0.0 | 0.00 | 0.10 | 0.10 | 91 | 1011.7 |
| 20260906025353 | 21 | 201 | 0.0 | 1.6 | 0.00 | 0.10 | 0.10 | 91 | 1011.8 |
| 20260906024852 | 21 | 188 | 1.6 | 1.6 | 0.00 | 0.10 | 0.10 | 91 | 1011.6 |
| 20260906024351 | 21 | 200 | 1.6 | 3.2 | 0.00 | 0.10 | 0.10 | 91 | 1011.5 |
| 20260906023846 | 21 | 176 | 0.0 | 1.6 | 0.00 | 0.10 | 0.10 | 90 | 1011.5 |
| 20260906023343 | 21 | 307 | 1.6 | 3.2 | 0.00 | 0.10 | 0.10 | 90 | 1011.6 |
| 20260906022837 | 21 | 357 | 3.2 | 3.2 | 0.00 | 0.10 | 0.10 | 90 | 1011.7 |
| 20260906022332 | 21 | 195 | 0.0 | 0.0 | 0.00 | 0.10 | 0.10 | 90 | 1011.6 |
| 20260906021828 | 21 | 195 | 0.0 | 0.0 | 0.00 | 0.10 | 0.10 | 90 | 1011.5 |
| 20260906021327 | 21 | 187 | 0.0 | 0.0 | 0.00 | 0.10 | 0.10 | 90 | 1011.5 |
| 20260906020821 | 21 | 178 | 0.0 | 0.0 | 0.00 | 0.10 | 0.10 | 90 | 1011.5 |
| 20260906020321 | 21 | 180 | 0.0 | 0.0 | 0.00 | 0.10 | 0.10 | 90 | 1011.4 |
| 20260906015816 | 21 | 186 | 0.0 | 0.0 | 0.00 | 0.10 | 0.10 | 90 | 1011.3 |
| 20260906015314 | 21 | 180 | 0.0 | 0.0 | 0.00 | 0.10 | 0.10 | 90 | 1011.4 |
| 20260906014809 | 21 | 185 | 0.0 | 0.0 | 0.00 | 0.10 | 0.10 | 90 | 1011.3 |
| 20260906014304 | 22 | 187 | 0.0 | 0.0 | 0.00 | 0.10 | 0.10 | 90 | 1011.3 |
| 20260906013800 | 21 | 275 | 0.0 | 0.0 | 0.00 | 0.10 | 0.10 | 90 | 1011.5 |
| 20260906013255 | 21 | 207 | 0.0 | 0.0 | 0.00 | 0.10 | 0.10 | 90 | 1011.5 |
| 20260906012750 | 22 | 178 | 0.0 | 0.0 | 0.00 | 0.10 | 0.10 | 90 | 1011.5 |
| 20260906012245 | 22 | 186 | 0.0 | 0.0 | 0.00 | 0.10 | 0.10 | 90 | 1011.4 |
| 20260906011741 | 22 | 181 | 0.0 | 0.0 | 0.00 | 0.10 | 0.10 | 90 | 1011.3 |
| 20260906011240 | 22 | 191 | 0.0 | 0.0 | 0.00 | 0.10 | 0.10 | 90 | 1011.2 |
| 20260906010736 | 22 | 159 | 0.0 | 0.0 | 0.00 | 0.10 | 0.10 | 89 | 1011.0 |
| 20260906010232 | 22 | 35 | 0.0 | 0.0 | 0.00 | 0.10 | 0.10 | 89 | 1011.2 |
| 20260906005727 | 22 | 334 | 1.6 | 1.6 | 0.00 | 0.10 | 0.10 | 89 | 1011.1 |
| 20260906005226 | 22 | 331 | 1.6 | 3.2 | 0.00 | 0.10 | 0.10 | 89 | 1010.9 |
| 20260906004726 | 22 | 64 | 1.6 | 1.6 | 0.00 | 0.10 | 0.10 | 89 | 1011.1 |
| 20260906004221 | 22 | 140 | 0.0 | 0.0 | 0.00 | 0.10 | 0.10 | 89 | 1011.1 |
| 20260906003716 | 23 | 194 | 0.0 | 0.0 | 0.00 | 0.10 | 0.10 | 89 | 1010.9 |
| 20260906003212 | 23 | 190 | 0.0 | 0.0 | 0.00 | 0.10 | 0.10 | 89 | 1011.0 |
| 20260906002711 | 23 | 210 | 0.0 | 0.0 | 0.00 | 0.10 | 0.10 | 89 | 1010.8 |
| 20260906002206 | 23 | 180 | 0.0 | 0.0 | 0.00 | 0.10 | 0.10 | 89 | 1010.9 |
| 20260906001702 | 23 | 186 | 0.0 | 0.0 | 0.00 | 0.10 | 0.10 | 89 | 1011.1 |
| 20260906001202 | 23 | 186 | 0.0 | 0.0 | 0.00 | 0.10 | 0.10 | 88 | 1010.7 |
| 20260906000657 | 23 | 208 | 1.6 | 3.2 | 0.00 | 0.10 | 0.10 | 88 | 1010.6 |
| 20260906000152 | 23 | 170 | 0.0 | 0.0 | 0.00 | 0.10 | 0.10 | 88 | 1010.7 |
| 20260905235651 | 23 | 198 | 0.0 | 3.2 | 0.00 | 0.10 | 0.10 | 88 | 1010.4 |
| 20260905235146 | 24 | 334 | 0.0 | 0.0 | 0.00 | 0.10 | 0.10 | 88 | 1010.5 |
| 20260905234641 | 24 | 61 | 3.2 | 3.2 | 0.00 | 0.10 | 0.10 | 87 | 1010.4 |
| 20260905234137 | 24 | 242 | 4.8 | 9.7 | 0.00 | 0.10 | 0.10 | 87 | 1010.4 |
| 20260905233632 | 24 | 217 | 0.0 | 0.0 | 0.00 | 0.10 | 0.10 | 87 | 1010.4 |
| 20260905233126 | 25 | 186 | 0.0 | 0.0 | 0.00 | 0.10 | 0.10 | 87 | 1010.3 |
| 20260905232622 | 25 | 224 | 0.0 | 0.0 | 0.00 | 0.10 | 0.10 | 86 | 1010.2 |
| 20260905232117 | 25 | 206 | 0.0 | 1.6 | 0.00 | 0.10 | 0.10 | 85 | 1010.2 |
| 20260905231617 | 25 | 330 | 3.2 | 8.0 | 0.00 | 0.10 | 0.10 | 85 | 1010.2 |
| 20260905231114 | 25 | 245 | 0.0 | 4.8 | 0.00 | 0.10 | 0.10 | 85 | 1010.2 |
| 20260905230609 | 25 | 303 | 1.6 | 8.0 | 0.00 | 0.10 | 0.10 | 84 | 1009.9 |
| 20260905230107 | 25 | 341 | 4.8 | 8.0 | 0.00 | 0.10 | 0.10 | 84 | 1010.1 |
| 20260905225607 | 25 | 304 | 4.8 | 4.8 | 0.00 | 0.10 | 0.10 | 83 | 1010.1 |
| 20260905225102 | 26 | 274 | 6.4 | 8.0 | 0.00 | 0.10 | 0.10 | 82 | 1010.2 |
| 20260905224602 | 26 | 357 | 3.2 | 8.0 | 0.00 | 0.10 | 0.10 | 82 | 1010.2 |
| 20260905224101 | 26 | 325 | 3.2 | 4.8 | 0.00 | 0.10 | 0.10 | 82 | 1010.2 |
| 20260905223559 | 26 | 256 | 4.8 | 4.8 | 0.00 | 0.10 | 0.10 | 81 | 1010.3 |
| 20260905223054 | 26 | 348 | 4.8 | 11.3 | 0.00 | 0.10 | 0.10 | 81 | 1010.4 |
| 20260905222554 | 26 | 26 | 3.2 | 3.2 | 0.00 | 0.10 | 0.10 | 81 | 1010.2 |
| 20260905222050 | 26 | 234 | 8.0 | 11.3 | 0.00 | 0.10 | 0.10 | 80 | 1009.9 |
| 20260905221546 | 26 | 330 | 8.0 | 12.9 | 0.00 | 0.10 | 0.10 | 80 | 1010.2 |
| 20260905221042 | 26 | 352 | 1.6 | 3.2 | 0.00 | 0.10 | 0.10 | 81 | 1010.1 |
| 20260905220537 | 26 | 304 | 4.8 | 9.7 | 0.00 | 0.10 | 0.10 | 80 | 1010.2 |
| 20260905220033 | 26 | 15 | 1.6 | 8.0 | 0.00 | 0.10 | 0.10 | 80 | 1010.4 |
| 20260905215532 | 26 | 305 | 6.4 | 8.0 | 0.00 | 0.10 | 0.10 | 80 | 1010.3 |
| 20260905215029 | 26 | 286 | 0.0 | 3.2 | 0.00 | 0.10 | 0.10 | 81 | 1010.3 |
| 20260905214525 | 26 | 313 | 4.8 | 9.7 | 0.00 | 0.10 | 0.10 | 79 | 1010.5 |
| 20260905214019 | 26 | 310 | 4.8 | 8.0 | 0.00 | 0.10 | 0.10 | 80 | 1010.4 |
| 20260905213515 | 26 | 355 | 3.2 | 4.8 | 0.00 | 0.10 | 0.10 | 81 | 1010.6 |
| 20260905213010 | 27 | 311 | 4.8 | 8.0 | 0.00 | 0.10 | 0.10 | 80 | 1010.6 |
| 20260905212505 | 26 | 241 | 1.6 | 4.8 | 0.00 | 0.10 | 0.10 | 81 | 1010.8 |
| 20260905212004 | 26 | 239 | 1.6 | 4.8 | 0.00 | 0.10 | 0.10 | 81 | 1011.1 |
| 20260905211500 | 26 | 304 | 1.6 | 8.0 | 0.00 | 0.10 | 0.10 | 83 | 1010.9 |
| 20260905210955 | 25 | 222 | 3.2 | 4.8 | 0.00 | 0.10 | 0.10 | 83 | 1010.9 |
| 20260905210451 | 25 | 176 | 0.0 | 1.6 | 0.00 | 0.10 | 0.10 | 84 | 1011.0 |
| 20260905205950 | 25 | 209 | 0.0 | 4.8 | 0.00 | 0.10 | 0.10 | 84 | 1011.0 |
| 20260905205445 | 24 | 266 | 1.6 | 4.8 | 0.00 | 0.10 | 0.10 | 85 | 1011.0 |
| 20260905204943 | 24 | 303 | 1.6 | 4.8 | 0.00 | 0.10 | 0.10 | 86 | 1011.0 |
| 20260905204440 | 24 | 204 | 0.0 | 3.2 | 0.00 | 0.10 | 0.10 | 86 | 1011.4 |
| 20260905203939 | 23 | 17 | 1.6 | 3.2 | 0.00 | 0.10 | 0.10 | 87 | 1011.4 |
| 20260905203434 | 23 | 315 | 1.6 | 3.2 | 0.00 | 0.10 | 0.10 | 88 | 1011.7 |
| 20260905202930 | 23 | 248 | 4.8 | 4.8 | 0.00 | 0.10 | 0.10 | 88 | 1011.8 |
| 20260905202425 | 23 | 265 | 4.8 | 8.0 | 0.00 | 0.10 | 0.10 | 88 | 1011.7 |
| 20260905201920 | 23 | 312 | 4.8 | 11.3 | 0.00 | 0.10 | 0.10 | 89 | 1011.4 |
| 20260905201416 | 22 | 300 | 6.4 | 9.7 | 0.00 | 0.10 | 0.10 | 89 | 1011.3 |
| 20260905200915 | 22 | 243 | 4.8 | 8.0 | 0.00 | 0.10 | 0.10 | 89 | 1011.3 |
| 20260905200411 | 22 | 181 | 3.2 | 9.7 | 0.00 | 0.10 | 0.10 | 89 | 1011.5 |
| 20260905195909 | 22 | 244 | 0.0 | 1.6 | 0.00 | 0.10 | 0.10 | 89 | 1011.6 |
| 20260905195405 | 22 | 284 | 1.6 | 3.2 | 0.00 | 0.10 | 0.10 | 89 | 1011.5 |
| 20260905194900 | 22 | 219 | 1.6 | 1.6 | 0.00 | 0.10 | 0.10 | 89 | 1011.2 |
| 20260905194400 | 22 | 241 | 0.0 | 1.6 | 0.00 | 0.10 | 0.10 | 89 | 1011.3 |
| 20260905193900 | 21 | 52 | 1.6 | 4.8 | 0.00 | 0.10 | 0.10 | 89 | 1011.0 |
| 20260905193355 | 21 | 318 | 0.0 | 3.2 | 0.00 | 0.10 | 0.10 | 88 | 1011.0 |
| 20260905192850 | 21 | 344 | 6.4 | 8.0 | 0.00 | 0.10 | 0.10 | 88 | 1011.3 |
| 20260905192345 | 21 | 319 | 3.2 | 9.7 | 0.00 | 0.10 | 0.10 | 88 | 1011.4 |
| 20260905191845 | 21 | 42 | 1.6 | 3.2 | 0.00 | 0.10 | 0.10 | 87 | 1011.4 |
| 20260905191344 | 21 | 275 | 1.6 | 3.2 | 0.13 | 0.10 | 0.10 | 86 | 1011.5 |
| 20260905190843 | 22 | 275 | 1.6 | 3.2 | 0.13 | 0.10 | 0.10 | 85 | 1011.3 |
| 20260905190336 | 22 | 346 | 3.2 | 9.7 | 0.00 | 0.08 | 0.08 | 84 | 1011.6 |
| 20260905185835 | 23 | 236 | 1.6 | 3.2 | 0.30 | 0.08 | 0.08 | 82 | 1011.8 |
| 20260905185331 | 23 | 168 | 8.0 | 14.5 | 0.43 | 0.08 | 0.08 | 78 | 1012.2 |
| 20260905184830 | 25 | 165 | 9.7 | 12.9 | 0.13 | 0.03 | 0.03 | 76 | 1012.6 |
| 20260905184330 | 26 | 76 | 1.6 | 17.7 | 0.00 | 0.00 | 0.00 | 69 | 1012.8 |
| 20260905183828 | 28 | 27 | 20.9 | 35.4 | 0.00 | 0.00 | 0.00 | 63 | 1012.2 |
| 20260905183323 | 30 | 6 | 19.3 | 43.5 | 0.00 | 0.00 | 0.00 | 62 | 1012.2 |
| 20260905182818 | 31 | 36 | 6.4 | 12.9 | 0.00 | 0.00 | 0.00 | 63 | 1011.8 |
| 20260905182318 | 32 | 301 | 4.8 | 8.0 | 0.00 | 0.00 | 0.00 | 62 | 1011.2 |
| 20260905181813 | 32 | 1 | 9.7 | 11.3 | 0.00 | 0.00 | 0.00 | 59 | 1010.9 |
| 20260905181313 | 33 | 344 | 6.4 | 9.7 | 0.00 | 0.00 | 0.00 | 58 | 1010.8 |
| 20260905180812 | 33 | 18 | 6.4 | 12.9 | 0.00 | 0.00 | 0.00 | 56 | 1010.8 |
| 20260905180307 | 34 | 19 | 4.8 | 11.3 | 0.00 | 0.00 | 0.00 | 57 | 1010.9 |
| 20260905175802 | 34 | 287 | 4.8 | 9.7 | 0.00 | 0.00 | 0.00 | 56 | 1011.3 |
| 20260905175256 | 35 | 358 | 11.3 | 16.1 | 0.00 | 0.00 | 0.00 | 54 | 1011.4 |
| 20260905174752 | 35 | 357 | 6.4 | 11.3 | 0.00 | 0.00 | 0.00 | 55 | 1011.6 |
| 20260905174248 | 35 | 6 | 8.0 | 14.5 | 0.00 | 0.00 | 0.00 | 53 | 1011.6 |
| 20260905173743 | 35 | 10 | 8.0 | 9.7 | 0.00 | 0.00 | 0.00 | 53 | 1011.5 |
| 20260905173239 | 35 | 315 | 8.0 | 9.7 | 0.00 | 0.00 | 0.00 | 55 | 1011.9 |
| 20260905172733 | 35 | 321 | 8.0 | 16.1 | 0.00 | 0.00 | 0.00 | 55 | 1012.0 |
| 20260905172232 | 35 | 238 | 1.6 | 4.8 | 0.00 | 0.00 | 0.00 | 56 | 1011.9 |
| 20260905171729 | 34 | 250 | 4.8 | 9.7 | 0.00 | 0.00 | 0.00 | 58 | 1012.1 |
| 20260905171225 | 33 | 251 | 4.8 | 9.7 | 0.00 | 0.00 | 0.00 | 56 | 1012.0 |
| 20260905170721 | 33 | 353 | 3.2 | 4.8 | 0.00 | 0.00 | 0.00 | 59 | 1012.2 |
| 20260905170221 | 34 | 340 | 8.0 | 9.7 | 0.00 | 0.00 | 0.00 | 59 | 1012.3 |
| 20260905165715 | 34 | 5 | 6.4 | 11.3 | 0.00 | 0.00 | 0.00 | 59 | 1012.2 |
| 20260905165210 | 34 | 348 | 11.3 | 14.5 | 0.00 | 0.00 | 0.00 | 60 | 1012.4 |
| 20260905164705 | 34 | 350 | 8.0 | 9.7 | 0.00 | 0.00 | 0.00 | 60 | 1012.5 |
| 20260905164205 | 34 | 319 | 8.0 | 11.3 | 0.00 | 0.00 | 0.00 | 59 | 1012.4 |
| 20260905163701 | 34 | 242 | 6.4 | 16.1 | 0.00 | 0.00 | 0.00 | 59 | 1012.5 |
| 20260905163157 | 34 | 39 | 4.8 | 4.8 | 0.00 | 0.00 | 0.00 | 62 | 1012.6 |
| 20260905162653 | 34 | 15 | 3.2 | 11.3 | 0.00 | 0.00 | 0.00 | 62 | 1012.9 |
| 20260905162152 | 34 | 227 | 0.0 | 4.8 | 0.00 | 0.00 | 0.00 | 60 | 1012.6 |
| 20260905161647 | 34 | 123 | 1.6 | 3.2 | 0.00 | 0.00 | 0.00 | 61 | 1012.7 |
| 20260905161144 | 34 | 239 | 1.6 | 3.2 | 0.00 | 0.00 | 0.00 | 63 | 1012.8 |
| 20260905160639 | 34 | 141 | 0.0 | 1.6 | 0.00 | 0.00 | 0.00 | 63 | 1012.8 |
| 20260905160138 | 33 | 183 | 1.6 | 3.2 | 0.00 | 0.00 | 0.00 | 63 | 1012.9 |
| 20260905155633 | 33 | 188 | 0.0 | 3.2 | 0.00 | 0.00 | 0.00 | 65 | 1012.8 |
| 20260905155132 | 33 | 166 | 0.0 | 3.2 | 0.00 | 0.00 | 0.00 | 66 | 1012.8 |
| 20260905154632 | 33 | 224 | 3.2 | 4.8 | 0.00 | 0.00 | 0.00 | 64 | 1013.3 |
| 20260905154128 | 33 | 41 | 1.6 | 4.8 | 0.00 | 0.00 | 0.00 | 65 | 1013.0 |
| 20260905153623 | 33 | 98 | 1.6 | 3.2 | 0.00 | 0.00 | 0.00 | 65 | 1013.0 |
| 20260905153119 | 33 | 289 | 3.2 | 4.8 | 0.00 | 0.00 | 0.00 | 65 | 1012.9 |
| 20260905152613 | 32 | 201 | 1.6 | 3.2 | 0.00 | 0.00 | 0.00 | 66 | 1012.9 |
| 20260905152108 | 32 | 211 | 3.2 | 4.8 | 0.00 | 0.00 | 0.00 | 66 | 1012.7 |
| 20260905151603 | 32 | 323 | 1.6 | 3.2 | 0.00 | 0.00 | 0.00 | 67 | 1013.0 |
| 20260905151058 | 32 | 173 | 1.6 | 4.8 | 0.00 | 0.00 | 0.00 | 68 | 1012.8 |
| 20260905150553 | 32 | 330 | 4.8 | 4.8 | 0.00 | 0.00 | 0.00 | 69 | 1012.8 |
| 20260905150051 | 31 | 253 | 1.6 | 3.2 | 0.00 | 0.00 | 0.00 | 70 | 1013.0 |
| 20260905145545 | 31 | 246 | 3.2 | 8.0 | 0.00 | 0.00 | 0.00 | 71 | 1013.0 |
| 20260905145044 | 31 | 182 | 1.6 | 4.8 | 0.00 | 0.00 | 0.00 | 71 | 1012.9 |
| 20260905144539 | 31 | 193 | 0.0 | 4.8 | 0.00 | 0.00 | 0.00 | 72 | 1013.1 |
| 20260905144038 | 31 | 256 | 1.6 | 3.2 | 0.00 | 0.00 | 0.00 | 73 | 1012.7 |
| 20260905143538 | 31 | 1 | 4.8 | 4.8 | 0.00 | 0.00 | 0.00 | 72 | 1013.3 |
| 20260905143033 | 31 | 206 | 1.6 | 3.2 | 0.00 | 0.00 | 0.00 | 73 | 1013.0 |
| 20260905142531 | 31 | 169 | 0.0 | 3.2 | 0.00 | 0.00 | 0.00 | 74 | 1012.9 |
| 20260905142027 | 30 | 196 | 1.6 | 3.2 | 0.00 | 0.00 | 0.00 | 75 | 1013.1 |
| 20260905141521 | 30 | 174 | 1.6 | 4.8 | 0.00 | 0.00 | 0.00 | 76 | 1012.9 |
| 20260905141018 | 30 | 187 | 1.6 | 1.6 | 0.00 | 0.00 | 0.00 | 77 | 1013.0 |
| 20260905140513 | 29 | 164 | 0.0 | 1.6 | 0.00 | 0.00 | 0.00 | 79 | 1013.1 |
| 20260905140011 | 28 | 187 | 1.6 | 1.6 | 0.00 | 0.00 | 0.00 | 80 | 1013.0 |
| 20260905135507 | 28 | 198 | 0.0 | 0.0 | 0.00 | 0.00 | 0.00 | 84 | 1013.1 |
| 20260905135007 | 28 | 158 | 0.0 | 0.0 | 0.00 | 0.00 | 0.00 | 86 | 1013.3 |
| 20260905134502 | 27 | 208 | 0.0 | 0.0 | 0.00 | 0.00 | 0.00 | 87 | 1013.3 |
| 20260905134001 | 27 | 83 | 0.0 | 0.0 | 0.00 | 0.00 | 0.00 | 88 | 1013.3 |
| 20260905133456 | 26 | 228 | 1.6 | 3.2 | 0.00 | 0.00 | 0.00 | 88 | 1013.4 |
| 20260905132955 | 27 | 285 | 1.6 | 1.6 | 0.00 | 0.00 | 0.00 | 89 | 1013.0 |
| 20260905132451 | 26 | 185 | 0.0 | 1.6 | 0.00 | 0.00 | 0.00 | 90 | 1013.1 |
| 20260905131945 | 26 | 348 | 3.2 | 3.2 | 0.00 | 0.00 | 0.00 | 90 | 1013.4 |
| 20260905131442 | 26 | 165 | 0.0 | 3.2 | 0.00 | 0.00 | 0.00 | 90 | 1013.6 |
| 20260905130942 | 26 | 310 | 3.2 | 3.2 | 0.00 | 0.00 | 0.00 | 90 | 1013.5 |
| 20260905130441 | 26 | 165 | 0.0 | 0.0 | 0.00 | 0.00 | 0.00 | 90 | 1013.4 |
| 20260905125941 | 26 | 193 | 0.0 | 0.0 | 0.00 | 0.00 | 0.00 | 91 | 1013.5 |
| 20260905125436 | 25 | 158 | 0.0 | 0.0 | 0.00 | 0.00 | 0.00 | 92 | 1013.6 |
| 20260905124932 | 25 | 160 | 0.0 | 0.0 | 0.00 | 0.00 | 0.00 | 92 | 1013.4 |
| 20260905124428 | 25 | 164 | 0.0 | 0.0 | 0.00 | 0.00 | 0.00 | 93 | 1013.4 |
| 20260905123928 | 25 | 156 | 0.0 | 0.0 | 0.00 | 0.00 | 0.00 | 93 | 1013.4 |
| 20260905123425 | 25 | 156 | 0.0 | 0.0 | 0.00 | 0.00 | 0.00 | 93 | 1013.1 |
| 20260905122920 | 24 | 141 | 0.0 | 0.0 | 0.00 | 0.00 | 0.00 | 93 | 1013.4 |
| 20260905122419 | 23 | 131 | 0.0 | 1.6 | 0.00 | 0.00 | 0.00 | 93 | 1013.0 |
| 20260905121915 | 23 | 161 | 0.0 | 0.0 | 0.00 | 0.00 | 0.00 | 93 | 1012.9 |
| 20260905121410 | 23 | 347 | 1.6 | 1.6 | 0.00 | 0.00 | 0.00 | 93 | 1013.0 |
| 20260905120910 | 23 | 164 | 0.0 | 0.0 | 0.00 | 0.00 | 0.00 | 93 | 1013.3 |
| 20260905120410 | 23 | 168 | 0.0 | 0.0 | 0.00 | 0.00 | 0.00 | 93 | 1013.0 |
| 20260905115905 | 22 | 167 | 0.0 | 0.0 | 0.00 | 0.00 | 0.00 | 93 | 1012.9 |
| 20260905115404 | 22 | 162 | 0.0 | 0.0 | 0.00 | 0.00 | 0.00 | 93 | 1012.8 |
| 20260905114859 | 21 | 158 | 0.0 | 0.0 | 0.00 | 0.00 | 0.00 | 93 | 1012.8 |
| 20260905114358 | 21 | 178 | 0.0 | 0.0 | 0.00 | 0.00 | 0.00 | 93 | 1012.9 |
| 20260905113858 | 21 | 172 | 0.0 | 0.0 | 0.00 | 0.00 | 0.00 | 93 | 1012.7 |
| 20260905113353 | 21 | 177 | 0.0 | 0.0 | 0.00 | 0.00 | 0.00 | 93 | 1012.7 |
| 20260905112848 | 21 | 177 | 0.0 | 0.0 | 0.00 | 0.00 | 0.00 | 93 | 1012.7 |
| 20260905112343 | 21 | 177 | 0.0 | 0.0 | 0.00 | 0.00 | 0.00 | 92 | 1012.7 |
| 20260905111839 | 21 | 173 | 0.0 | 0.0 | 0.00 | 0.00 | 0.00 | 92 | 1012.6 |
| 20260905111333 | 21 | 198 | 0.0 | 0.0 | 0.00 | 0.00 | 0.00 | 93 | 1012.7 |
| 20260905110832 | 21 | 190 | 0.0 | 0.0 | 0.00 | 0.00 | 0.00 | 92 | 1012.6 |
| 20260905110326 | 21 | 62 | 0.0 | 0.0 | 0.00 | 0.00 | 0.00 | 92 | 1012.4 |
| 20260905105822 | 21 | 180 | 0.0 | 0.0 | 0.00 | 0.00 | 0.00 | 92 | 1012.2 |
| 20260905105321 | 21 | 167 | 0.0 | 0.0 | 0.00 | 0.00 | 0.00 | 92 | 1012.2 |
| 20260905104815 | 21 | 173 | 0.0 | 0.0 | 0.00 | 0.00 | 0.00 | 93 | 1012.2 |
| 20260905104312 | 21 | 180 | 0.0 | 0.0 | 0.00 | 0.00 | 0.00 | 92 | 1011.9 |
| 20260905103811 | 21 | 183 | 0.0 | 0.0 | 0.00 | 0.00 | 0.00 | 92 | 1012.0 |
| 20260905103306 | 21 | 173 | 0.0 | 0.0 | 0.00 | 0.00 | 0.00 | 92 | 1012.0 |
| 20260905102802 | 21 | 174 | 0.0 | 0.0 | 0.00 | 0.00 | 0.00 | 92 | 1011.8 |
| 20260905102259 | 21 | 176 | 0.0 | 1.6 | 0.00 | 0.00 | 0.00 | 92 | 1011.8 |
| 20260905101758 | 22 | 153 | 0.0 | 1.6 | 0.00 | 0.00 | 0.00 | 92 | 1011.9 |
| 20260905101257 | 22 | 201 | 0.0 | 3.2 | 0.00 | 0.00 | 0.00 | 92 | 1011.8 |
| 20260905100752 | 22 | 215 | 0.0 | 0.0 | 0.00 | 0.00 | 0.00 | 92 | 1011.4 |
| 20260905100248 | 22 | 143 | 0.0 | 0.0 | 0.00 | 0.00 | 0.00 | 92 | 1011.7 |
| 20260905095747 | 22 | 299 | 0.0 | 0.0 | 0.00 | 0.00 | 0.00 | 92 | 1011.7 |
| 20260905095247 | 22 | 205 | 0.0 | 1.6 | 0.00 | 0.00 | 0.00 | 92 | 1011.7 |
| 20260905094742 | 22 | 314 | 1.6 | 3.2 | 0.00 | 0.00 | 0.00 | 92 | 1011.8 |
| 20260905094238 | 22 | 209 | 0.0 | 0.0 | 0.00 | 0.00 | 0.00 | 92 | 1011.8 |
| 20260905093736 | 22 | 98 | 0.0 | 0.0 | 0.00 | 0.00 | 0.00 | 92 | 1011.8 |
| 20260905093232 | 22 | 336 | 0.0 | 1.6 | 0.00 | 0.00 | 0.00 | 92 | 1011.9 |
| 20260905092727 | 21 | 322 | 0.0 | 0.0 | 0.00 | 0.00 | 0.00 | 92 | 1011.8 |
| 20260905092223 | 21 | 185 | 0.0 | 0.0 | 0.00 | 0.00 | 0.00 | 92 | 1011.8 |
| 20260905091722 | 21 | 195 | 0.0 | 0.0 | 0.00 | 0.00 | 0.00 | 92 | 1011.8 |
| 20260905091218 | 22 | 174 | 0.0 | 0.0 | 0.00 | 0.00 | 0.00 | 92 | 1011.7 |
| 20260905090717 | 22 | 181 | 0.0 | 0.0 | 0.00 | 0.00 | 0.00 | 92 | 1011.9 |
| 20260905090213 | 22 | 185 | 0.0 | 0.0 | 0.00 | 0.00 | 0.00 | 92 | 1011.7 |
| 20260905085711 | 22 | 189 | 0.0 | 0.0 | 0.00 | 0.00 | 0.00 | 92 | 1011.7 |
| 20260905085206 | 21 | 171 | 0.0 | 0.0 | 0.00 | 0.00 | 0.00 | 92 | 1011.9 |
| 20260905084701 | 22 | 170 | 0.0 | 0.0 | 0.00 | 0.00 | 0.00 | 92 | 1012.0 |
| 20260905084201 | 22 | 181 | 0.0 | 0.0 | 0.00 | 0.00 | 0.00 | 92 | 1012.0 |
| 20260905083655 | 22 | 178 | 0.0 | 0.0 | 0.00 | 0.00 | 0.00 | 92 | 1012.2 |
| 20260905083152 | 22 | 185 | 0.0 | 0.0 | 0.00 | 0.00 | 0.00 | 92 | 1012.2 |
| 20260905082647 | 22 | 184 | 0.0 | 0.0 | 0.00 | 0.00 | 0.00 | 92 | 1012.2 |
| 20260905082142 | 22 | 277 | 1.6 | 3.2 | 0.00 | 0.00 | 0.00 | 92 | 1012.3 |
| 20260905081637 | 22 | 314 | 0.0 | 0.0 | 0.00 | 0.00 | 0.00 | 92 | 1012.2 |
| 20260905081132 | 22 | 229 | 0.0 | 0.0 | 0.00 | 0.00 | 0.00 | 92 | 1012.5 |
| 20260905080627 | 22 | 229 | 0.0 | 0.0 | 0.00 | 0.00 | 0.00 | 92 | 1012.4 |
| 20260905080121 | 22 | 179 | 0.0 | 0.0 | 0.00 | 0.00 | 0.00 | 92 | 1012.4 |
| 20260905075620 | 22 | 134 | 0.0 | 0.0 | 0.00 | 0.00 | 0.00 | 92 | 1012.4 |
| 20260905075120 | 22 | 180 | 0.0 | 0.0 | 0.00 | 0.00 | 0.00 | 92 | 1012.4 |
| 20260905074619 | 22 | 162 | 0.0 | 0.0 | 0.00 | 0.00 | 0.00 | 92 | 1012.5 |
| 20260905074115 | 22 | 155 | 0.0 | 0.0 | 0.00 | 0.00 | 0.00 | 92 | 1012.6 |
| 20260905073610 | 22 | 169 | 0.0 | 0.0 | 0.00 | 0.00 | 0.00 | 92 | 1012.4 |
| 20260905073106 | 22 | 171 | 0.0 | 0.0 | 0.00 | 0.00 | 0.00 | 92 | 1012.5 |
| 20260905072605 | 22 | 168 | 0.0 | 0.0 | 0.00 | 0.00 | 0.00 | 91 | 1012.5 |
| 20260905072101 | 22 | 179 | 0.0 | 0.0 | 0.00 | 0.00 | 0.00 | 91 | 1012.5 |
| 20260905071557 | 22 | 179 | 0.0 | 0.0 | 0.00 | 0.00 | 0.00 | 91 | 1012.6 |
| 20260905071057 | 22 | 169 | 0.0 | 0.0 | 0.00 | 0.00 | 0.00 | 91 | 1012.7 |
| 20260905070552 | 22 | 173 | 0.0 | 0.0 | 0.00 | 0.00 | 0.00 | 91 | 1012.7 |
| 20260905070048 | 22 | 179 | 0.0 | 0.0 | 0.00 | 0.00 | 0.00 | 91 | 1012.8 |
| 20260905065546 | 22 | 179 | 0.0 | 0.0 | 0.00 | 0.00 | 0.00 | 91 | 1012.9 |
| 20260905065042 | 22 | 185 | 0.0 | 0.0 | 0.00 | 0.00 | 0.00 | 91 | 1012.9 |
| 20260905064542 | 22 | 179 | 0.0 | 0.0 | 0.00 | 0.00 | 0.00 | 91 | 1013.0 |
| 20260905064037 | 22 | 180 | 0.0 | 0.0 | 0.00 | 0.00 | 0.00 | 91 | 1013.0 |
| 20260905063536 | 22 | 179 | 0.0 | 0.0 | 0.00 | 0.00 | 0.00 | 91 | 1012.8 |
| 20260905063032 | 23 | 179 | 0.0 | 0.0 | 0.00 | 0.00 | 0.00 | 91 | 1012.8 |
| 20260905062532 | 22 | 179 | 0.0 | 0.0 | 0.00 | 0.00 | 0.00 | 91 | 1013.3 |
| 20260905062027 | 23 | 179 | 0.0 | 0.0 | 0.00 | 0.00 | 0.00 | 91 | 1013.3 |
| 20260905061522 | 23 | 179 | 0.0 | 0.0 | 0.00 | 0.00 | 0.00 | 91 | 1013.4 |
| 20260905061021 | 23 | 179 | 0.0 | 0.0 | 0.00 | 0.00 | 0.00 | 91 | 1013.4 |
| 20260905060517 | 23 | 181 | 0.0 | 0.0 | 0.00 | 0.00 | 0.00 | 91 | 1013.6 |
| 20260905060013 | 23 | 190 | 0.0 | 0.0 | 0.00 | 0.00 | 0.00 | 91 | 1013.7 |
| 20260905055511 | 23 | 191 | 0.0 | 0.0 | 0.00 | 0.00 | 0.00 | 91 | 1013.7 |
| 20260905055006 | 23 | 146 | 0.0 | 0.0 | 0.00 | 0.00 | 0.00 | 91 | 1013.5 |
| 20260905054502 | 23 | 167 | 0.0 | 0.0 | 0.00 | 0.00 | 0.00 | 91 | 1013.7 |
| 20260905053957 | 23 | 154 | 0.0 | 0.0 | 0.00 | 0.00 | 0.00 | 91 | 1013.7 |
| 20260905053451 | 23 | 166 | 0.0 | 0.0 | 0.00 | 0.00 | 0.00 | 91 | 1013.7 |
| 20260905052947 | 23 | 164 | 0.0 | 0.0 | 0.00 | 0.00 | 0.00 | 91 | 1013.8 |
| 20260905052447 | 23 | 163 | 0.0 | 0.0 | 0.00 | 0.00 | 0.00 | 91 | 1013.9 |
| 20260905051946 | 23 | 181 | 0.0 | 0.0 | 0.00 | 0.00 | 0.00 | 91 | 1013.6 |
| 20260905051441 | 23 | 191 | 0.0 | 0.0 | 0.00 | 0.00 | 0.00 | 91 | 1013.7 |
| 20260905050939 | 23 | 154 | 0.0 | 0.0 | 0.00 | 0.00 | 0.00 | 91 | 1014.0 |
| 20260905050429 | 23 | 163 | 0.0 | 0.0 | 0.00 | 0.00 | 0.00 | 91 | 1013.5 |
| 20260905045925 | 23 | 201 | 0.0 | 0.0 | 0.00 | 0.00 | 0.00 | 91 | 1013.7 |
| 20260905045420 | 23 | 172 | 0.0 | 0.0 | 0.00 | 0.00 | 0.00 | 91 | 1013.7 |
| 20260905044915 | 23 | 156 | 0.0 | 0.0 | 0.00 | 0.00 | 0.00 | 91 | 1013.9 |
| 20260905044410 | 23 | 149 | 0.0 | 0.0 | 0.00 | 0.00 | 0.00 | 90 | 1013.8 |
| 20260905043909 | 23 | 161 | 0.0 | 0.0 | 0.00 | 0.00 | 0.00 | 90 | 1013.7 |
| 20260905043404 | 23 | 145 | 0.0 | 0.0 | 0.00 | 0.00 | 0.00 | 90 | 1013.8 |
| 20260905042903 | 23 | 181 | 0.0 | 0.0 | 0.00 | 0.00 | 0.00 | 90 | 1013.8 |
| 20260905042358 | 23 | 180 | 0.0 | 0.0 | 0.00 | 0.00 | 0.00 | 90 | 1013.7 |
| 20260905041853 | 23 | 180 | 0.0 | 0.0 | 0.00 | 0.00 | 0.00 | 90 | 1013.9 |
| 20260905041349 | 23 | 230 | 0.0 | 0.0 | 0.00 | 0.00 | 0.00 | 90 | 1013.8 |
| 20260905040843 | 23 | 209 | 0.0 | 0.0 | 0.00 | 0.00 | 0.00 | 90 | 1013.9 |
| 20260905040342 | 23 | 188 | 0.0 | 0.0 | 0.00 | 0.00 | 0.00 | 90 | 1013.7 |
| 20260905035836 | 23 | 175 | 0.0 | 0.0 | 0.00 | 0.00 | 0.00 | 90 | 1013.6 |
| 20260905035332 | 23 | 168 | 0.0 | 0.0 | 0.00 | 0.00 | 0.00 | 90 | 1013.6 |
| 20260905034828 | 23 | 192 | 0.0 | 0.0 | 0.00 | 0.00 | 0.00 | 90 | 1013.6 |
| 20260905034324 | 23 | 254 | 0.0 | 0.0 | 0.00 | 0.00 | 0.00 | 90 | 1013.6 |
| 20260905033822 | 23 | 165 | 0.0 | 0.0 | 0.00 | 0.00 | 0.00 | 90 | 1013.5 |
| 20260905033318 | 24 | 170 | 0.0 | 0.0 | 0.00 | 0.00 | 0.00 | 90 | 1013.6 |
| 20260905032817 | 24 | 181 | 0.0 | 0.0 | 0.00 | 0.00 | 0.00 | 90 | 1013.4 |
| 20260905032313 | 24 | 185 | 0.0 | 0.0 | 0.00 | 0.00 | 0.00 | 90 | 1013.6 |